createdAt,value
2019-04-23T00:01:29.897Z,11.90
2019-04-23T00:05:41.415Z,14.20
2019-04-23T00:09:39.328Z,13.27
2019-04-23T00:13:50.248Z,14.77
2019-04-23T00:17:55.783Z,12.33
2019-04-23T00:22:05.465Z,12.97
2019-04-23T00:26:25.650Z,14.73
2019-04-23T00:30:36.471Z,12.43
2019-04-23T00:38:49.927Z,10.27
2019-04-23T00:47:23.536Z,12.40
2019-04-23T00:51:22.403Z,14.33
2019-04-23T00:55:31.275Z,11.30
2019-04-23T00:59:48.245Z,14.77
2019-04-23T01:03:48.346Z,12.10
2019-04-23T01:07:51.501Z,13.00
2019-04-23T01:12:03.896Z,14.30
2019-04-23T01:16:13.147Z,11.27
2019-04-23T01:20:20.988Z,12.23
2019-04-23T01:24:14.113Z,11.57
2019-04-23T01:28:42.456Z,12.37
2019-04-23T01:32:54.659Z,11.67
2019-04-23T01:36:56.460Z,15.30
2019-04-23T01:41:07.718Z,12.03
2019-04-23T01:45:21.799Z,11.30
2019-04-23T01:49:31.453Z,13.20
2019-04-23T01:53:34.605Z,11.50
2019-04-23T02:05:58.884Z,12.57
2019-04-23T02:10:07.159Z,12.43
2019-04-23T02:14:16.298Z,11.90
2019-04-23T02:18:24.408Z,12.20
2019-04-23T02:22:58.717Z,11.43
2019-04-23T02:27:03.215Z,12.50
2019-04-23T02:39:36.802Z,14.67
2019-04-23T02:43:26.409Z,13.70
2019-04-23T02:52:03.487Z,12.90
2019-04-23T02:56:29.118Z,11.70
2019-04-23T03:04:34.852Z,14.07
2019-04-23T03:08:27.253Z,12.13
2019-04-23T03:12:52.605Z,11.73
2019-04-23T03:16:53.991Z,14.37
2019-04-23T03:25:27.240Z,13.10
2019-04-23T03:29:31.735Z,10.93
2019-04-23T03:41:54.839Z,13.10
2019-04-23T03:46:22.082Z,13.63
2019-04-23T04:03:04.681Z,16.07
2019-04-23T04:07:15.331Z,14.90
2019-04-23T04:11:14.631Z,12.43
2019-04-23T04:15:53.316Z,14.77
2019-04-23T04:23:43.187Z,13.93
2019-04-23T04:27:54.468Z,13.80
2019-04-23T04:31:57.156Z,13.03
2019-04-23T04:36:21.877Z,15.07
2019-04-23T04:40:45.817Z,16.63
2019-04-23T04:44:43.516Z,12.47
2019-04-23T04:48:54.872Z,14.40
2019-04-23T04:53:12.574Z,13.60
2019-04-23T04:57:20.436Z,12.13
2019-04-23T05:05:51.565Z,10.80
2019-04-23T05:09:52.085Z,13.50
2019-04-23T05:13:51.555Z,12.03
2019-04-23T05:18:20.655Z,12.10
2019-04-23T05:22:06.950Z,12.47
2019-04-23T05:26:17.387Z,14.37
2019-04-23T05:30:25.106Z,15.33
2019-04-23T05:34:27.349Z,15.17
2019-04-23T05:42:50.046Z,13.13
2019-04-23T05:46:55.842Z,15.00
2019-04-23T05:51:04.521Z,13.93
2019-04-23T05:55:08.818Z,17.63
2019-04-23T05:59:19.555Z,12.93
2019-04-23T06:03:29.379Z,14.33
2019-04-23T06:07:38.929Z,16.57
2019-04-23T06:11:53.654Z,13.67
2019-04-23T06:15:55.875Z,13.10
2019-04-23T06:20:04.318Z,11.87
2019-04-23T06:24:16.812Z,14.83
2019-04-23T06:32:25.837Z,17.87
2019-04-23T06:36:32.633Z,15.43
2019-04-23T06:40:43.482Z,18.17
2019-04-23T06:44:51.698Z,14.97
2019-04-23T06:49:00.719Z,15.03
2019-04-23T06:52:58.864Z,19.13
2019-04-23T06:57:19.190Z,16.30
2019-04-23T07:01:22.145Z,15.43
2019-04-23T07:05:37.673Z,16.80
2019-04-23T07:09:38.885Z,18.33
2019-04-23T07:13:55.826Z,20.10
2019-04-23T07:17:58.760Z,11.53
2019-04-23T07:22:14.721Z,16.90
2019-04-23T07:30:32.875Z,16.50
2019-04-23T07:34:49.411Z,16.87
2019-04-23T07:39:11.753Z,14.07
2019-04-23T07:43:34.331Z,13.40
2019-04-23T07:48:01.425Z,16.97
2019-04-23T07:52:13.234Z,14.13
2019-04-23T07:56:13.124Z,14.70
2019-04-23T08:00:29.713Z,16.57
2019-04-23T08:04:35.268Z,21.00
2019-04-23T08:08:39.331Z,17.13
2019-04-23T08:12:45.173Z,14.30
2019-04-23T08:16:50.327Z,21.73
2019-04-23T08:21:05.559Z,14.43
2019-04-23T08:25:12.565Z,15.17
2019-04-23T08:29:24.987Z,18.67
2019-04-23T08:33:42.257Z,17.17
2019-04-23T08:45:59.550Z,22.20
2019-04-23T08:50:27.688Z,16.43
2019-04-23T08:54:29.805Z,16.47
2019-04-23T08:58:34.295Z,17.07
2019-04-23T09:02:47.804Z,24.17
2019-04-23T09:06:50.192Z,17.10
2019-04-23T09:10:55.802Z,16.70
2019-04-23T09:15:01.869Z,17.20
2019-04-23T09:23:11.590Z,19.50
2019-04-23T09:27:31.667Z,18.13
2019-04-23T09:32:05.677Z,20.80
2019-04-23T09:36:06.539Z,15.87
2019-04-23T09:40:51.555Z,16.30
2019-04-23T09:44:57.049Z,17.70
2019-04-23T09:49:03.376Z,14.97
2019-04-23T09:57:07.315Z,18.07
2019-04-23T10:05:19.522Z,15.63
2019-04-23T10:09:16.147Z,18.97
2019-04-23T10:13:22.062Z,15.40
2019-04-23T10:17:28.935Z,23.43
2019-04-23T10:21:35.391Z,18.47
2019-04-23T10:25:41.723Z,22.83
2019-04-23T10:29:49.936Z,22.97
2019-04-23T10:33:57.945Z,21.13
2019-04-23T10:38:10.131Z,19.53
2019-04-23T10:42:14.203Z,21.03
2019-04-23T10:46:48.922Z,18.93
2019-04-23T10:51:04.570Z,22.67
2019-04-23T10:55:11.988Z,18.37
2019-04-23T11:04:02.474Z,16.87
2019-04-23T11:07:42.048Z,24.93
2019-04-23T11:12:12.333Z,23.80
2019-04-23T11:16:40.420Z,20.33
2019-04-23T11:24:36.020Z,18.23
2019-04-23T11:32:56.984Z,21.87
2019-04-23T11:41:07.256Z,21.60
2019-04-23T11:45:18.501Z,24.33
2019-04-23T11:49:34.867Z,23.83
2019-04-23T11:53:32.045Z,22.47
2019-04-23T11:57:41.235Z,20.97
2019-04-23T12:02:00.812Z,23.97
2019-04-23T12:06:25.043Z,22.40
2019-04-23T12:19:40.943Z,19.10
2019-04-23T12:23:43.628Z,21.27
2019-04-23T12:27:27.497Z,24.43
2019-04-23T12:31:47.581Z,21.83
2019-04-23T12:35:39.019Z,23.60
2019-04-23T12:40:00.590Z,23.03
2019-04-23T12:44:00.930Z,23.83
2019-04-23T12:52:18.172Z,26.23
2019-04-23T12:56:31.807Z,28.23
2019-04-23T13:04:48.885Z,25.83
2019-04-23T13:08:54.486Z,21.13
2019-04-23T13:13:10.790Z,23.97
2019-04-23T13:17:27.353Z,24.27
2019-04-23T13:21:41.393Z,20.40
2019-04-23T13:25:37.584Z,26.60
2019-04-23T13:29:43.514Z,31.90
2019-04-23T13:42:05.174Z,22.07
2019-04-23T13:46:13.775Z,26.60
2019-04-23T13:50:30.927Z,25.10
2019-04-23T13:54:46.486Z,28.37
2019-04-23T13:58:38.558Z,26.33
2019-04-23T14:06:53.921Z,28.83
2019-04-23T14:10:53.250Z,26.97
2019-04-23T14:15:12.516Z,27.03
2019-04-23T14:19:06.781Z,26.93
2019-04-23T14:23:41.239Z,28.07
2019-04-23T14:27:39.919Z,24.37
2019-04-23T14:31:43.400Z,29.57
2019-04-23T14:35:54.477Z,33.27
2019-04-23T14:40:21.686Z,25.60
2019-04-23T14:44:36.671Z,24.63
2019-04-23T14:48:51.640Z,22.80
2019-04-23T14:53:06.582Z,30.40
2019-04-23T14:57:07.950Z,28.77
2019-04-23T15:05:24.053Z,26.70
2019-04-23T15:09:33.880Z,22.53
2019-04-23T15:17:49.330Z,30.73
2019-04-23T15:26:50.931Z,19.60
2019-04-23T15:27:15.786Z,25.40
2019-04-23T15:30:03.721Z,23.97
2019-04-23T15:34:20.933Z,26.33
2019-04-23T15:42:41.236Z,20.63
2019-04-23T15:46:47.096Z,24.30
2019-04-23T15:51:04.444Z,26.10
2019-04-23T15:55:02.018Z,21.40
2019-04-23T15:59:25.934Z,18.80
2019-04-23T16:02:52.092Z,24.17
2019-04-23T16:07:08.477Z,16.57
2019-04-23T16:11:45.396Z,20.17
2019-04-23T16:16:02.585Z,21.60
2019-04-23T16:24:13.613Z,22.47
2019-04-23T16:28:18.882Z,19.87
2019-04-23T16:32:37.593Z,21.57
2019-04-23T16:36:48.268Z,21.30
2019-04-23T16:40:47.657Z,19.13
2019-04-23T16:49:20.031Z,27.77
2019-04-23T16:53:21.203Z,18.40
2019-04-23T16:57:39.000Z,22.40
2019-04-23T17:01:24.902Z,16.77
2019-04-23T17:10:03.224Z,20.43
2019-04-23T17:14:04.553Z,19.33
2019-04-23T17:18:11.631Z,18.13
2019-04-23T17:22:11.575Z,19.50
2019-04-23T17:26:26.299Z,19.43
2019-04-23T17:30:32.484Z,16.17
2019-04-23T17:39:06.382Z,18.80
2019-04-23T17:43:06.433Z,19.00
2019-04-23T17:47:37.757Z,16.70
2019-04-23T17:52:05.404Z,16.23
2019-04-23T18:00:23.153Z,17.47
2019-04-23T18:08:19.427Z,14.93
2019-04-23T18:21:03.309Z,16.13
2019-04-23T18:25:11.103Z,12.77
2019-04-23T18:34:05.306Z,14.33
2019-04-23T18:37:58.498Z,12.37
2019-04-23T18:42:22.375Z,14.47
2019-04-23T18:50:46.851Z,13.47
2019-04-23T18:54:34.725Z,14.77
2019-04-23T19:03:01.350Z,11.03
2019-04-23T19:07:42.531Z,15.63
2019-04-23T19:15:53.011Z,14.63
2019-04-23T19:20:18.023Z,17.87
2019-04-23T19:24:23.847Z,18.90
2019-04-23T19:32:39.090Z,16.80
2019-04-23T19:40:55.257Z,15.27
2019-04-23T19:44:54.399Z,16.17
2019-04-23T19:53:25.300Z,17.00
2019-04-23T19:57:22.339Z,19.47
2019-04-23T20:01:29.039Z,17.33
2019-04-23T20:05:41.873Z,17.40
2019-04-23T20:18:01.067Z,18.77
2019-04-23T20:22:16.367Z,21.90
2019-04-23T20:30:41.322Z,18.63
2019-04-23T20:34:51.864Z,19.87
2019-04-23T20:38:57.436Z,19.93
2019-04-23T20:42:53.031Z,18.30
2019-04-23T20:51:16.763Z,18.00
2019-04-23T20:55:29.332Z,19.20
2019-04-23T20:59:35.914Z,18.97
2019-04-23T21:12:05.059Z,22.43
2019-04-23T21:24:42.898Z,19.90
2019-04-23T21:28:48.256Z,21.60
2019-04-23T21:33:04.885Z,21.87
2019-04-23T21:37:06.282Z,22.50
2019-04-23T21:41:32.964Z,17.93
2019-04-23T21:45:30.475Z,17.37
2019-04-23T21:49:50.711Z,21.47
2019-04-23T21:53:46.027Z,24.13
2019-04-23T22:02:38.290Z,22.83
2019-04-23T22:06:41.302Z,24.60
2019-04-23T22:10:47.856Z,22.50
2019-04-23T22:14:47.494Z,27.27
2019-04-23T22:19:04.227Z,24.27
2019-04-23T22:27:08.608Z,22.53
2019-04-23T22:31:18.744Z,21.37
2019-04-23T22:35:24.405Z,22.80
2019-04-23T22:39:40.076Z,23.33
2019-04-23T22:43:57.721Z,25.40
2019-04-23T22:47:58.445Z,20.40
2019-04-23T22:56:10.715Z,21.67
2019-04-23T23:04:31.238Z,23.63
2019-04-23T23:08:40.839Z,25.50
2019-04-23T23:12:52.783Z,25.47
2019-04-23T23:16:50.351Z,25.63
2019-04-23T23:21:05.530Z,22.90
2019-04-23T23:25:15.193Z,25.33
2019-04-23T23:29:15.465Z,24.83
2019-04-23T23:33:23.288Z,24.30
2019-04-23T23:37:39.632Z,21.93
2019-04-23T23:50:15.941Z,24.13
2019-04-23T23:54:21.467Z,25.73
2019-04-23T23:58:40.658Z,25.33
